sensor_id;sensor_type;location;lat;lon;timestamp;pressure;altitude;pressure_sealevel;temperature;humidity
1832;BME280;1680;48.106;11.708;2023-02-12T00:01:58;97358.59;;;4.26;80.95
1832;BME280;1680;48.106;11.708;2023-02-12T00:04:25;97354.78;;;4.11;81.30
1832;BME280;1680;48.106;11.708;2023-02-12T00:06:53;97352.28;;;4.10;81.86
1832;BME280;1680;48.106;11.708;2023-02-12T00:09:21;97344.09;;;4.05;81.55
1832;BME280;1680;48.106;11.708;2023-02-12T00:11:49;97342.88;;;4.09;81.63
1832;BME280;1680;48.106;11.708;2023-02-12T00:14:16;97355.16;;;4.16;80.49
1832;BME280;1680;48.106;11.708;2023-02-12T00:16:43;97344.78;;;3.97;81.82
1832;BME280;1680;48.106;11.708;2023-02-12T00:19:11;97343.56;;;4.11;80.92
1832;BME280;1680;48.106;11.708;2023-02-12T00:21:38;97327.56;;;4.15;81.49
1832;BME280;1680;48.106;11.708;2023-02-12T00:24:05;97322.63;;;4.12;81.58
1832;BME280;1680;48.106;11.708;2023-02-12T00:26:35;97335.75;;;4.11;81.89
1832;BME280;1680;48.106;11.708;2023-02-12T00:29:02;97280.63;;;3.81;81.72
1832;BME280;1680;48.106;11.708;2023-02-12T00:31:30;97347.38;;;4.16;81.87
1832;BME280;1680;48.106;11.708;2023-02-12T00:33:58;97272.44;;;3.76;81.50
1832;BME280;1680;48.106;11.708;2023-02-12T00:36:28;97353.25;;;4.18;81.46
1832;BME280;1680;48.106;11.708;2023-02-12T00:38:56;97339.31;;;4.19;81.70
1832;BME280;1680;48.106;11.708;2023-02-12T00:41:24;97343.13;;;4.25;81.02
1832;BME280;1680;48.106;11.708;2023-02-12T00:43:53;97344.22;;;4.22;82.12
1832;BME280;1680;48.106;11.708;2023-02-12T00:46:20;97342.56;;;4.31;81.29
1832;BME280;1680;48.106;11.708;2023-02-12T00:48:48;97343.38;;;4.22;81.81
1832;BME280;1680;48.106;11.708;2023-02-12T00:51:15;97335.75;;;4.11;82.21
1832;BME280;1680;48.106;11.708;2023-02-12T00:53:42;97330.84;;;4.17;82.03
1832;BME280;1680;48.106;11.708;2023-02-12T00:56:10;97346.41;;;4.17;82.67
1832;BME280;1680;48.106;11.708;2023-02-12T00:58:37;97357.47;;;4.19;82.39
1832;BME280;1680;48.106;11.708;2023-02-12T01:01:06;97344.78;;;4.16;82.74
1832;BME280;1680;48.106;11.708;2023-02-12T01:03:33;97361.19;;;4.26;82.02
1832;BME280;1680;48.106;11.708;2023-02-12T01:06:00;97357.06;;;4.24;82.71
1832;BME280;1680;48.106;11.708;2023-02-12T01:08:28;97340.00;;;4.21;82.74
1832;BME280;1680;48.106;11.708;2023-02-12T01:10:57;97348.31;;;4.25;83.30
1832;BME280;1680;48.106;11.708;2023-02-12T01:13:25;97348.19;;;4.26;82.79
1832;BME280;1680;48.106;11.708;2023-02-12T01:16:02;97342.59;;;4.21;83.45
1832;BME280;1680;48.106;11.708;2023-02-12T01:18:32;97340.94;;;4.20;83.62
1832;BME280;1680;48.106;11.708;2023-02-12T01:21:00;97338.22;;;4.12;84.72
1832;BME280;1680;48.106;11.708;2023-02-12T01:23:27;97341.91;;;4.19;83.97
1832;BME280;1680;48.106;11.708;2023-02-12T01:25:54;97347.78;;;4.21;84.53
1832;BME280;1680;48.106;11.708;2023-02-12T01:28:24;97345.19;;;4.21;84.52
1832;BME280;1680;48.106;11.708;2023-02-12T01:30:51;97355.97;;;4.26;84.62
1832;BME280;1680;48.106;11.708;2023-02-12T01:33:19;97360.31;;;4.35;85.21
1832;BME280;1680;48.106;11.708;2023-02-12T01:35:47;97354.59;;;4.32;86.49
1832;BME280;1680;48.106;11.708;2023-02-12T01:38:15;97354.84;;;4.38;85.90
1832;BME280;1680;48.106;11.708;2023-02-12T01:40:42;97349.69;;;4.29;87.04
1832;BME280;1680;48.106;11.708;2023-02-12T01:43:11;97347.78;;;4.21;87.48
1832;BME280;1680;48.106;11.708;2023-02-12T01:45:50;97352.41;;;4.27;87.20
1832;BME280;1680;48.106;11.708;2023-02-12T01:48:22;97351.84;;;4.33;87.02
1832;BME280;1680;48.106;11.708;2023-02-12T01:50:53;97350.50;;;4.29;86.60
1832;BME280;1680;48.106;11.708;2023-02-12T01:53:23;97349.94;;;4.26;86.99
1832;BME280;1680;48.106;11.708;2023-02-12T01:55:56;97351.59;;;4.36;86.72
1832;BME280;1680;48.106;11.708;2023-02-12T01:58:25;97350.44;;;4.48;85.13
1832;BME280;1680;48.106;11.708;2023-02-12T02:00:54;97290.84;;;3.91;86.29
1832;BME280;1680;48.106;11.708;2023-02-12T02:03:22;97343.13;;;4.15;86.43
1832;BME280;1680;48.106;11.708;2023-02-12T02:05:57;97331.94;;;4.15;86.63
1832;BME280;1680;48.106;11.708;2023-02-12T02:08:26;97339.84;;;4.13;86.73
1832;BME280;1680;48.106;11.708;2023-02-12T02:10:53;97334.66;;;4.13;86.10
1832;BME280;1680;48.106;11.708;2023-02-12T02:13:21;97331.94;;;4.05;86.16
1832;BME280;1680;48.106;11.708;2023-02-12T02:16:11;97337.56;;;4.01;87.12
1832;BME280;1680;48.106;11.708;2023-02-12T02:18:45;97294.03;;;3.67;87.06
1832;BME280;1680;48.106;11.708;2023-02-12T02:21:51;97341.78;;;4.11;86.16
1832;BME280;1680;48.106;11.708;2023-02-12T02:25:05;97339.03;;;4.13;86.70
1832;BME280;1680;48.106;11.708;2023-02-12T02:27:46;97345.31;;;4.20;86.49
1832;BME280;1680;48.106;11.708;2023-02-12T02:30:29;97340.00;;;4.21;86.43
1832;BME280;1680;48.106;11.708;2023-02-12T02:33:08;97341.47;;;4.24;86.51
1832;BME280;1680;48.106;11.708;2023-02-12T02:35:40;97282.13;;;3.92;85.59
1832;BME280;1680;48.106;11.708;2023-02-12T02:38:19;97332.72;;;4.34;85.46
1832;BME280;1680;48.106;11.708;2023-02-12T02:40:51;97333.41;;;4.27;85.73
1832;BME280;1680;48.106;11.708;2023-02-12T02:43:26;97335.22;;;4.26;85.83
1832;BME280;1680;48.106;11.708;2023-02-12T02:45:59;97279.25;;;3.95;85.23
1832;BME280;1680;48.106;11.708;2023-02-12T02:48:31;97322.63;;;4.22;85.44
1832;BME280;1680;48.106;11.708;2023-02-12T02:51:03;97324.84;;;4.17;86.02
1832;BME280;1680;48.106;11.708;2023-02-12T02:53:34;97324.69;;;4.18;86.07
1832;BME280;1680;48.106;11.708;2023-02-12T02:56:06;97319.34;;;4.20;85.90
1832;BME280;1680;48.106;11.708;2023-02-12T02:58:38;97323.72;;;4.19;86.33
1832;BME280;1680;48.106;11.708;2023-02-12T03:01:13;97310.06;;;4.17;85.98
1832;BME280;1680;48.106;11.708;2023-02-12T03:03:48;97329.59;;;4.21;85.51
1832;BME280;1680;48.106;11.708;2023-02-12T03:06:23;97328.81;;;4.11;86.10
1832;BME280;1680;48.106;11.708;2023-02-12T03:08:55;97333.31;;;4.09;86.57
1832;BME280;1680;48.106;11.708;2023-02-12T03:11:26;97327.03;;;4.12;86.40
1832;BME280;1680;48.106;11.708;2023-02-12T03:13:58;97337.94;;;4.15;86.30
1832;BME280;1680;48.106;11.708;2023-02-12T03:16:31;97341.75;;;4.21;86.01
1832;BME280;1680;48.106;11.708;2023-02-12T03:19:07;97340.69;;;4.23;85.16
1832;BME280;1680;48.106;11.708;2023-02-12T03:21:40;97345.88;;;4.23;85.51
1832;BME280;1680;48.106;11.708;2023-02-12T03:24:11;97353.22;;;4.28;85.13
1832;BME280;1680;48.106;11.708;2023-02-12T03:26:44;97359.78;;;4.32;84.76
1832;BME280;1680;48.106;11.708;2023-02-12T03:29:13;97338.75;;;4.25;85.28
1832;BME280;1680;48.106;11.708;2023-02-12T03:31:51;97347.78;;;4.21;85.60
1832;BME280;1680;48.106;11.708;2023-02-12T03:34:27;97357.47;;;4.19;86.48
1832;BME280;1680;48.106;11.708;2023-02-12T03:37:01;97343.97;;;4.25;85.79
1832;BME280;1680;48.106;11.708;2023-02-12T03:39:36;97345.28;;;4.29;85.27
1832;BME280;1680;48.106;11.708;2023-02-12T03:42:08;97345.72;;;4.15;86.04
1832;BME280;1680;48.106;11.708;2023-02-12T03:44:45;97349.28;;;4.14;86.33
1832;BME280;1680;48.106;11.708;2023-02-12T03:47:22;97335.91;;;4.09;86.34
1832;BME280;1680;48.106;11.708;2023-02-12T03:49:58;97349.28;;;4.05;85.91
1832;BME280;1680;48.106;11.708;2023-02-12T03:52:27;97355.31;;;4.05;86.64
1832;BME280;1680;48.106;11.708;2023-02-12T03:54:55;97345.63;;;4.07;85.90
1832;BME280;1680;48.106;11.708;2023-02-12T03:57:24;97355.72;;;4.10;85.77
1832;BME280;1680;48.106;11.708;2023-02-12T03:59:56;97347.25;;;4.08;86.45
1832;BME280;1680;48.106;11.708;2023-02-12T04:02:25;97348.22;;;4.07;85.81
1832;BME280;1680;48.106;11.708;2023-02-12T04:04:52;97354.34;;;4.06;85.63
1832;BME280;1680;48.106;11.708;2023-02-12T04:07:20;97368.28;;;4.05;86.44
1832;BME280;1680;48.106;11.708;2023-02-12T04:09:47;97366.38;;;4.07;85.77
1832;BME280;1680;48.106;11.708;2023-02-12T04:12:30;97370.47;;;4.10;86.50
1832;BME280;1680;48.106;11.708;2023-02-12T04:15:10;97369.38;;;4.12;86.57
1832;BME280;1680;48.106;11.708;2023-02-12T04:17:49;97368.16;;;4.07;86.28
1832;BME280;1680;48.106;11.708;2023-02-12T04:20:25;97373.75;;;4.12;86.68
1832;BME280;1680;48.106;11.708;2023-02-12T04:23:01;97371.56;;;4.17;85.84
1832;BME280;1680;48.106;11.708;2023-02-12T04:25:42;97372.66;;;4.14;86.41
1832;BME280;1680;48.106;11.708;2023-02-12T04:28:18;97372.66;;;4.14;86.68
1832;BME280;1680;48.106;11.708;2023-02-12T04:30:55;97383.03;;;4.14;86.90
1832;BME280;1680;48.106;11.708;2023-02-12T04:33:31;97366.75;;;4.12;86.29
1832;BME280;1680;48.106;11.708;2023-02-12T04:36:04;97381.53;;;4.21;85.90
1832;BME280;1680;48.106;11.708;2023-02-12T04:38:35;97385.50;;;4.16;87.01
1832;BME280;1680;48.106;11.708;2023-02-12T04:41:05;97385.25;;;4.19;86.34
1832;BME280;1680;48.106;11.708;2023-02-12T04:43:35;97376.63;;;4.18;85.92
1832;BME280;1680;48.106;11.708;2023-02-12T04:46:05;97387.25;;;4.15;86.56
1832;BME280;1680;48.106;11.708;2023-02-12T04:48:34;97382.50;;;4.11;86.78
1832;BME280;1680;48.106;11.708;2023-02-12T04:51:03;97385.78;;;4.13;86.68
1832;BME280;1680;48.106;11.708;2023-02-12T04:53:31;97387.97;;;4.08;87.28
1832;BME280;1680;48.106;11.708;2023-02-12T04:55:58;97385.25;;;4.09;86.47
1832;BME280;1680;48.106;11.708;2023-02-12T04:58:25;97367.75;;;3.92;86.71
1832;BME280;1680;48.106;11.708;2023-02-12T05:00:52;97393.41;;;4.14;86.46
1832;BME280;1680;48.106;11.708;2023-02-12T05:03:20;97395.06;;;4.15;86.86
1832;BME280;1680;48.106;11.708;2023-02-12T05:05:48;97403.00;;;4.23;86.64
1832;BME280;1680;48.106;11.708;2023-02-12T05:08:16;97410.09;;;4.21;86.67
1832;BME280;1680;48.106;11.708;2023-02-12T05:10:43;97394.38;;;4.23;87.15
1832;BME280;1680;48.106;11.708;2023-02-12T05:13:10;97395.91;;;4.16;87.20
1832;BME280;1680;48.106;11.708;2023-02-12T05:15:38;97403.41;;;4.19;87.57
1832;BME280;1680;48.106;11.708;2023-02-12T05:18:05;97411.47;;;4.16;87.26
1832;BME280;1680;48.106;11.708;2023-02-12T05:20:32;97407.34;;;4.13;87.77
1832;BME280;1680;48.106;11.708;2023-02-12T05:23:01;97404.63;;;4.15;87.38
1832;BME280;1680;48.106;11.708;2023-02-12T05:25:28;97405.31;;;4.17;87.30
1832;BME280;1680;48.106;11.708;2023-02-12T05:27:56;97407.34;;;4.13;87.90
1832;BME280;1680;48.106;11.708;2023-02-12T05:30:23;97404.75;;;4.13;87.85
1832;BME280;1680;48.106;11.708;2023-02-12T05:32:51;97409.69;;;4.16;87.39
1832;BME280;1680;48.106;11.708;2023-02-12T05:35:18;97406.13;;;4.08;88.02
1832;BME280;1680;48.106;11.708;2023-02-12T05:37:46;97399.72;;;4.12;87.70
1832;BME280;1680;48.106;11.708;2023-02-12T05:40:15;97407.34;;;4.13;87.46
1832;BME280;1680;48.106;11.708;2023-02-12T05:42:43;97412.28;;;4.16;87.31
1832;BME280;1680;48.106;11.708;2023-02-12T05:45:10;97417.06;;;4.21;87.09
1832;BME280;1680;48.106;11.708;2023-02-12T05:47:38;97417.88;;;4.21;87.79
1832;BME280;1680;48.106;11.708;2023-02-12T05:50:06;97416.94;;;4.22;87.10
1832;BME280;1680;48.106;11.708;2023-02-12T05:52:33;97415.03;;;4.24;87.48
1832;BME280;1680;48.106;11.708;2023-02-12T05:55:01;97415.97;;;4.23;87.77
1832;BME280;1680;48.106;11.708;2023-02-12T05:57:30;97414.72;;;4.27;87.20
1832;BME280;1680;48.106;11.708;2023-02-12T05:59:57;97427.31;;;4.22;87.37
1832;BME280;1680;48.106;11.708;2023-02-12T06:02:24;97410.22;;;4.20;87.64
1832;BME280;1680;48.106;11.708;2023-02-12T06:04:53;97413.66;;;4.20;88.33
1832;BME280;1680;48.106;11.708;2023-02-12T06:07:20;97418.84;;;4.20;87.86
1832;BME280;1680;48.106;11.708;2023-02-12T06:09:48;97425.41;;;4.15;88.39
1832;BME280;1680;48.106;11.708;2023-02-12T06:12:16;97432.09;;;4.17;88.59
1832;BME280;1680;48.106;11.708;2023-02-12T06:14:44;97428.69;;;4.17;88.30
1832;BME280;1680;48.106;11.708;2023-02-12T06:17:12;97433.31;;;4.13;88.62
1832;BME280;1680;48.106;11.708;2023-02-12T06:19:39;97437.97;;;4.19;89.06
1832;BME280;1680;48.106;11.708;2023-02-12T06:22:06;97433.31;;;4.13;89.10
1832;BME280;1680;48.106;11.708;2023-02-12T06:24:34;97411.19;;;4.00;89.22
1832;BME280;1680;48.106;11.708;2023-02-12T06:27:01;97427.16;;;4.14;89.55
1832;BME280;1680;48.106;11.708;2023-02-12T06:29:29;97437.56;;;4.14;89.28
1832;BME280;1680;48.106;11.708;2023-02-12T06:31:57;97435.63;;;4.16;88.99
1832;BME280;1680;48.106;11.708;2023-02-12T06:34:25;97374.03;;;3.81;89.00
1832;BME280;1680;48.106;11.708;2023-02-12T06:36:52;97437.44;;;4.16;89.05
1832;BME280;1680;48.106;11.708;2023-02-12T06:39:20;97445.63;;;4.30;88.52
1832;BME280;1680;48.106;11.708;2023-02-12T06:41:47;97446.19;;;4.24;88.53
1832;BME280;1680;48.106;11.708;2023-02-12T06:44:14;97454.66;;;4.17;89.41
1832;BME280;1680;48.106;11.708;2023-02-12T06:46:41;97452.19;;;4.15;89.18
1832;BME280;1680;48.106;11.708;2023-02-12T06:49:11;97396.97;;;3.85;88.97
1832;BME280;1680;48.106;11.708;2023-02-12T06:51:39;97447.56;;;4.19;88.89
1832;BME280;1680;48.106;11.708;2023-02-12T06:54:11;97444.66;;;4.31;88.81
1832;BME280;1680;48.106;11.708;2023-02-12T06:56:39;97442.75;;;4.33;88.74
1832;BME280;1680;48.106;11.708;2023-02-12T06:59:06;97453.56;;;4.29;88.59
1832;BME280;1680;48.106;11.708;2023-02-12T07:01:33;97443.44;;;4.26;88.57
1832;BME280;1680;48.106;11.708;2023-02-12T07:04:02;97454.34;;;4.29;88.95
1832;BME280;1680;48.106;11.708;2023-02-12T07:06:33;97455.06;;;4.31;89.40
1832;BME280;1680;48.106;11.708;2023-02-12T07:09:01;97459.72;;;4.37;88.46
1832;BME280;1680;48.106;11.708;2023-02-12T07:11:30;97404.63;;;4.05;88.39
1832;BME280;1680;48.106;11.708;2023-02-12T07:13:58;97408.47;;;4.11;88.16
1832;BME280;1680;48.106;11.708;2023-02-12T07:16:25;97430.31;;;4.27;87.53
1832;BME280;1680;48.106;11.708;2023-02-12T07:18:53;97450.81;;;4.49;87.80
1832;BME280;1680;48.106;11.708;2023-02-12T07:21:20;97456.53;;;4.53;87.85
1832;BME280;1680;48.106;11.708;2023-02-12T07:23:51;97446.41;;;4.59;87.71
1832;BME280;1680;48.106;11.708;2023-02-12T07:26:20;97455.03;;;4.60;88.03
1832;BME280;1680;48.106;11.708;2023-02-12T07:28:47;97446.81;;;4.64;87.26
1832;BME280;1680;48.106;11.708;2023-02-12T07:31:16;97448.72;;;4.62;87.76
1832;BME280;1680;48.106;11.708;2023-02-12T07:33:44;97453.25;;;4.60;87.78
1832;BME280;1680;48.106;11.708;2023-02-12T07:36:13;97444.75;;;4.68;87.10
1832;BME280;1680;48.106;11.708;2023-02-12T07:38:40;97444.47;;;4.80;86.80
1832;BME280;1680;48.106;11.708;2023-02-12T07:41:11;97447.59;;;4.83;86.41
1832;BME280;1680;48.106;11.708;2023-02-12T07:43:39;97452.94;;;4.91;86.05
1832;BME280;1680;48.106;11.708;2023-02-12T07:46:09;97428.84;;;4.89;85.74
1832;BME280;1680;48.106;11.708;2023-02-12T07:48:37;97455.88;;;5.06;85.49
1832;BME280;1680;48.106;11.708;2023-02-12T07:51:05;97442.59;;;5.09;85.21
1832;BME280;1680;48.106;11.708;2023-02-12T07:53:34;97443.00;;;5.14;84.84
1832;BME280;1680;48.106;11.708;2023-02-12T07:56:06;97439.53;;;5.23;84.72
1832;BME280;1680;48.106;11.708;2023-02-12T07:58:35;97448.94;;;5.33;84.05
1832;BME280;1680;48.106;11.708;2023-02-12T08:01:11;97450.16;;;5.39;83.49
1832;BME280;1680;48.106;11.708;2023-02-12T08:03:38;97440.41;;;5.41;83.64
1832;BME280;1680;48.106;11.708;2023-02-12T08:06:07;97444.66;;;5.42;83.01
1832;BME280;1680;48.106;11.708;2023-02-12T08:08:34;97446.53;;;5.49;83.46
1832;BME280;1680;48.106;11.708;2023-02-12T08:11:04;97443.91;;;5.59;83.54
1832;BME280;1680;48.106;11.708;2023-02-12T08:13:32;97442.06;;;5.69;82.84
1832;BME280;1680;48.106;11.708;2023-02-12T08:16:01;97441.25;;;5.68;83.15
1832;BME280;1680;48.106;11.708;2023-02-12T08:18:29;97440.13;;;5.71;83.92
1832;BME280;1680;48.106;11.708;2023-02-12T08:21:01;97450.53;;;5.71;84.29
1832;BME280;1680;48.106;11.708;2023-02-12T08:23:29;97451.06;;;5.74;84.78
1832;BME280;1680;48.106;11.708;2023-02-12T08:26:04;97426.03;;;5.64;84.89
1832;BME280;1680;48.106;11.708;2023-02-12T08:28:32;97445.50;;;5.69;88.31
1832;BME280;1680;48.106;11.708;2023-02-12T08:31:02;97445.63;;;5.68;89.30
1832;BME280;1680;48.106;11.708;2023-02-12T08:33:30;97443.94;;;5.76;89.80
1832;BME280;1680;48.106;11.708;2023-02-12T08:36:01;97440.53;;;5.75;90.39
1832;BME280;1680;48.106;11.708;2023-02-12T08:38:30;97430.88;;;5.85;90.60
1832;BME280;1680;48.106;11.708;2023-02-12T08:41:00;97430.66;;;5.96;90.59
1832;BME280;1680;48.106;11.708;2023-02-12T08:43:28;97429.69;;;5.97;91.80
1832;BME280;1680;48.106;11.708;2023-02-12T08:46:02;97434.84;;;6.07;91.43
1832;BME280;1680;48.106;11.708;2023-02-12T08:48:29;97430.25;;;6.18;90.72
1832;BME280;1680;48.106;11.708;2023-02-12T08:51:03;97437.38;;;6.16;91.66
1832;BME280;1680;48.106;11.708;2023-02-12T08:53:30;97433.81;;;6.17;91.74
1832;BME280;1680;48.106;11.708;2023-02-12T08:55:58;97429.94;;;6.21;91.62
1832;BME280;1680;48.106;11.708;2023-02-12T08:58:25;97425.84;;;6.36;91.31
1832;BME280;1680;48.106;11.708;2023-02-12T09:00:52;97426.72;;;6.27;92.42
1832;BME280;1680;48.106;11.708;2023-02-12T09:03:21;97440.13;;;6.32;92.41
1832;BME280;1680;48.106;11.708;2023-02-12T09:05:48;97372.28;;;5.99;92.27
1832;BME280;1680;48.106;11.708;2023-02-12T09:08:16;97426.66;;;6.37;92.13
1832;BME280;1680;48.106;11.708;2023-02-12T09:10:43;97434.16;;;6.57;92.29
1832;BME280;1680;48.106;11.708;2023-02-12T09:13:12;97427.88;;;6.68;90.85
1832;BME280;1680;48.106;11.708;2023-02-12T09:15:41;97433.34;;;6.82;90.54
1832;BME280;1680;48.106;11.708;2023-02-12T09:18:09;97440.19;;;6.83;90.67
1832;BME280;1680;48.106;11.708;2023-02-12T09:20:40;97441.50;;;6.79;91.09
1832;BME280;1680;48.106;11.708;2023-02-12T09:23:08;97443.78;;;6.82;90.89
1832;BME280;1680;48.106;11.708;2023-02-12T09:25:40;97448.47;;;6.78;92.16
1832;BME280;1680;48.106;11.708;2023-02-12T09:28:08;97445.22;;;7.02;91.64
1832;BME280;1680;48.106;11.708;2023-02-12T09:30:36;97455.06;;;7.08;91.71
1832;BME280;1680;48.106;11.708;2023-02-12T09:33:05;97386.94;;;6.85;91.16
1832;BME280;1680;48.106;11.708;2023-02-12T09:35:33;97399.13;;;6.85;91.59
1832;BME280;1680;48.106;11.708;2023-02-12T09:38:03;97450.69;;;7.16;92.57
1832;BME280;1680;48.106;11.708;2023-02-12T09:40:35;97446.00;;;7.28;92.96
1832;BME280;1680;48.106;11.708;2023-02-12T09:43:15;97450.81;;;7.40;91.84
1832;BME280;1680;48.106;11.708;2023-02-12T09:45:48;97453.47;;;7.48;91.38
1832;BME280;1680;48.106;11.708;2023-02-12T09:48:31;97452.66;;;7.48;91.10
1832;BME280;1680;48.106;11.708;2023-02-12T09:51:04;97449.72;;;7.51;91.05
1832;BME280;1680;48.106;11.708;2023-02-12T09:53:37;97451.38;;;7.60;91.06
1832;BME280;1680;48.106;11.708;2023-02-12T09:56:11;97453.38;;;7.66;89.80
1832;BME280;1680;48.106;11.708;2023-02-12T09:58:42;97402.63;;;7.27;88.96
1832;BME280;1680;48.106;11.708;2023-02-12T10:01:13;97452.78;;;7.79;88.13
1832;BME280;1680;48.106;11.708;2023-02-12T10:03:41;97455.75;;;7.84;88.56
1832;BME280;1680;48.106;11.708;2023-02-12T10:06:13;97455.41;;;7.87;87.92
1832;BME280;1680;48.106;11.708;2023-02-12T10:08:58;97453.97;;;7.93;87.29
1832;BME280;1680;48.106;11.708;2023-02-12T10:14:40;97455.69;;;7.76;87.95
1832;BME280;1680;48.106;11.708;2023-02-12T10:17:18;97406.16;;;7.51;87.34
1832;BME280;1680;48.106;11.708;2023-02-12T10:20:10;97460.13;;;7.84;87.13
1832;BME280;1680;48.106;11.708;2023-02-12T10:22:48;97449.09;;;8.06;86.48
1832;BME280;1680;48.106;11.708;2023-02-12T10:25:25;97462.66;;;8.01;86.04
1832;BME280;1680;48.106;11.708;2023-02-12T10:27:56;97454.00;;;8.09;86.32
1832;BME280;1680;48.106;11.708;2023-02-12T10:30:33;97447.84;;;8.18;86.58
1832;BME280;1680;48.106;11.708;2023-02-12T10:33:12;97446.56;;;8.46;85.63
1832;BME280;1680;48.106;11.708;2023-02-12T10:35:43;97443.31;;;8.75;84.12
1832;BME280;1680;48.106;11.708;2023-02-12T10:38:15;97454.59;;;8.60;83.95
1832;BME280;1680;48.106;11.708;2023-02-12T10:40:45;97451.66;;;8.71;82.55
1832;BME280;1680;48.106;11.708;2023-02-12T10:43:15;97455.59;;;8.75;82.17
1832;BME280;1680;48.106;11.708;2023-02-12T10:45:43;97450.81;;;8.70;82.34
1832;BME280;1680;48.106;11.708;2023-02-12T10:48:13;97452.44;;;8.71;83.33
1832;BME280;1680;48.106;11.708;2023-02-12T10:50:49;97458.19;;;8.67;83.00
1832;BME280;1680;48.106;11.708;2023-02-12T10:53:21;97345.06;;;7.93;83.15
1832;BME280;1680;48.106;11.708;2023-02-12T10:56:05;97452.78;;;8.45;84.59
1832;BME280;1680;48.106;11.708;2023-02-12T10:58:38;97456.56;;;8.58;84.76
1832;BME280;1680;48.106;11.708;2023-02-12T11:01:14;97444.31;;;8.67;83.52
1832;BME280;1680;48.106;11.708;2023-02-12T11:03:42;97443.94;;;8.69;83.01
1832;BME280;1680;48.106;11.708;2023-02-12T11:06:14;97390.50;;;8.24;86.20
1832;BME280;1680;48.106;11.708;2023-02-12T11:08:43;97435.47;;;8.52;84.37
1832;BME280;1680;48.106;11.708;2023-02-12T11:11:15;97439.88;;;8.67;83.85
1832;BME280;1680;48.106;11.708;2023-02-12T11:13:47;97429.59;;;8.50;84.88
1832;BME280;1680;48.106;11.708;2023-02-12T11:16:26;97439.38;;;8.40;85.06
1832;BME280;1680;48.106;11.708;2023-02-12T11:18:57;97435.28;;;8.29;85.94
1832;BME280;1680;48.106;11.708;2023-02-12T11:21:25;97440.53;;;8.29;85.81
1832;BME280;1680;48.106;11.708;2023-02-12T11:23:52;97439.88;;;8.43;84.99
1832;BME280;1680;48.106;11.708;2023-02-12T11:26:26;97429.56;;;8.58;85.23
1832;BME280;1680;48.106;11.708;2023-02-12T11:28:56;97418.16;;;8.67;83.96
1832;BME280;1680;48.106;11.708;2023-02-12T11:31:24;97424.19;;;8.59;84.16
1832;BME280;1680;48.106;11.708;2023-02-12T11:34:14;97424.03;;;8.68;83.81
1832;BME280;1680;48.106;11.708;2023-02-12T11:36:44;97419.09;;;8.73;82.64
1832;BME280;1680;48.106;11.708;2023-02-12T11:39:19;97427.75;;;8.82;83.30
1832;BME280;1680;48.106;11.708;2023-02-12T11:41:52;97421.88;;;8.64;83.95
1832;BME280;1680;48.106;11.708;2023-02-12T11:44:23;97426.66;;;8.68;82.99
1832;BME280;1680;48.106;11.708;2023-02-12T11:46:54;97421.41;;;8.45;84.37
1832;BME280;1680;48.106;11.708;2023-02-12T11:49:24;97420.44;;;8.38;85.25
1832;BME280;1680;48.106;11.708;2023-02-12T11:51:53;97420.41;;;8.46;84.22
1832;BME280;1680;48.106;11.708;2023-02-12T11:54:24;97408.81;;;8.48;84.28
1832;BME280;1680;48.106;11.708;2023-02-12T11:56:54;97413.72;;;8.51;84.39
1832;BME280;1680;48.106;11.708;2023-02-12T11:59:30;97406.72;;;8.52;83.55
1832;BME280;1680;48.106;11.708;2023-02-12T12:02:04;97413.06;;;8.41;85.08
1832;BME280;1680;48.106;11.708;2023-02-12T12:04:33;97415.19;;;8.62;83.66
1832;BME280;1680;48.106;11.708;2023-02-12T12:07:06;97397.88;;;8.37;84.95
1832;BME280;1680;48.106;11.708;2023-02-12T12:09:41;97399.50;;;8.62;84.33
1832;BME280;1680;48.106;11.708;2023-02-12T12:12:16;97396.03;;;8.77;83.84
1832;BME280;1680;48.106;11.708;2023-02-12T12:14:49;97393.41;;;8.77;84.01
1832;BME280;1680;48.106;11.708;2023-02-12T12:17:39;97323.00;;;8.60;83.12
1832;BME280;1680;48.106;11.708;2023-02-12T12:20:29;97379.66;;;8.99;82.27
1832;BME280;1680;48.106;11.708;2023-02-12T12:23:02;97352.53;;;8.84;82.21
1832;BME280;1680;48.106;11.708;2023-02-12T12:25:36;97373.91;;;9.03;81.95
1832;BME280;1680;48.106;11.708;2023-02-12T12:28:21;97383.25;;;9.06;81.58
1832;BME280;1680;48.106;11.708;2023-02-12T12:31:02;97375.41;;;8.98;80.99
1832;BME280;1680;48.106;11.708;2023-02-12T12:33:37;97375.25;;;8.91;82.89
1832;BME280;1680;48.106;11.708;2023-02-12T12:36:33;97376.41;;;8.89;81.89
1832;BME280;1680;48.106;11.708;2023-02-12T12:39:13;97376.72;;;9.02;81.30
1832;BME280;1680;48.106;11.708;2023-02-12T12:41:57;97379.34;;;8.94;81.92
1832;BME280;1680;48.106;11.708;2023-02-12T12:44:40;97378.06;;;8.90;82.30
1832;BME280;1680;48.106;11.708;2023-02-12T12:47:20;97378.72;;;8.84;83.24
1832;BME280;1680;48.106;11.708;2023-02-12T12:50:06;97379.38;;;8.86;82.47
1832;BME280;1680;48.106;11.708;2023-02-12T12:52:59;97386.59;;;8.76;83.51
1832;BME280;1680;48.106;11.708;2023-02-12T12:55:47;97329.09;;;8.20;83.90
1832;BME280;1680;48.106;11.708;2023-02-12T12:58:24;97371.25;;;8.57;84.71
1832;BME280;1680;48.106;11.708;2023-02-12T13:01:09;97369.91;;;8.53;85.14
1832;BME280;1680;48.106;11.708;2023-02-12T13:03:58;97372.50;;;8.77;84.26
1832;BME280;1680;48.106;11.708;2023-02-12T13:06:45;97378.09;;;8.74;83.50
1832;BME280;1680;48.106;11.708;2023-02-12T13:09:36;97369.91;;;8.69;84.42
1832;BME280;1680;48.106;11.708;2023-02-12T13:12:31;97369.91;;;8.69;84.85
1832;BME280;1680;48.106;11.708;2023-02-12T13:15:03;97374.50;;;8.75;84.48
1832;BME280;1680;48.106;11.708;2023-02-12T13:17:37;97371.06;;;8.67;84.91
1832;BME280;1680;48.106;11.708;2023-02-12T13:20:16;97373.19;;;8.71;85.04
1832;BME280;1680;48.106;11.708;2023-02-12T13:22:51;97370.56;;;8.63;85.04
1832;BME280;1680;48.106;11.708;2023-02-12T13:25:25;97370.22;;;8.66;84.83
1832;BME280;1680;48.106;11.708;2023-02-12T13:27:56;97363.38;;;8.65;85.57
1832;BME280;1680;48.106;11.708;2023-02-12T13:30:29;97374.13;;;8.78;85.33
1832;BME280;1680;48.106;11.708;2023-02-12T13:33:05;97374.50;;;8.59;86.51
1832;BME280;1680;48.106;11.708;2023-02-12T13:35:34;97370.91;;;8.60;86.44
1832;BME280;1680;48.106;11.708;2023-02-12T13:38:05;97370.88;;;8.76;85.08
1832;BME280;1680;48.106;11.708;2023-02-12T13:40:34;97366.31;;;8.70;85.74
1832;BME280;1680;48.106;11.708;2023-02-12T13:43:14;97354.72;;;8.65;86.72
1832;BME280;1680;48.106;11.708;2023-02-12T13:45:54;97291.84;;;8.26;86.31
1832;BME280;1680;48.106;11.708;2023-02-12T13:48:45;97358.09;;;8.81;85.66
1832;BME280;1680;48.106;11.708;2023-02-12T13:51:20;97362.38;;;8.74;86.17